Airfield :
LOGIN :

Register | Disclaimer

   EN    FR    IT 

 










Legend :    VFR   Marginal VFR   IFR   Intensive IFR   Very Intensive IFR
Visi :
Ceiling :
>= 8 km
>= 3000ft
5 to 8 km
1000 to 3000 ft
1500m to 5 km
500 to 1000 ft
800 to 1500m
200 to 500 ft
< 800m
< 200 ft
Symbols :   Thunderstorms  Fog  Heavy snow  Heavy precipitations  Wind > 20 kt
SIGMETs :     Misc.  Thunderstorms  Icing  Turbulence  Mountain Waves  Volcanic Ashes






- Airport Elevation : 412 ft
- IATA code : ORE


LFOJ - Orleans

CURRENT METAR :
  • 170430Z AUTO 05004KT 9999 OVC027 05/04 Q1008

EXPIRED METARs :
  • 170400Z AUTO 08003KT 9999 OVC026 05/04 Q1008
  • 170330Z AUTO 00000KT 9999 OVC026 05/04 Q1008
  • 170300Z AUTO 00000KT 9999 OVC026 05/04 Q1008
  • 170230Z AUTO 04003KT 9999 OVC027 05/04 Q1008
  • 170200Z AUTO 35003KT 9999 OVC028 05/04 Q1008

TAF TAF LFOJ
Valid from the 16 at 15:00 until the 17 at 15:00 UTC


161400Z 1615/1715 15008KT 9999 OVC009
BECMG 1702/1704 3500 DZ BKN004
BECMG 1711/1713 9000 NSW BKN010



MET'MAP, your aeronautical weather chart ! - Copyright ORBIFLY December 2007 - Disclaimer

ORBIFLY MET'MAP TEAM :

Programming & Development : Alexandra Zaïnal
Concept & Development : Baudouin d'Aumeries
Co-Development & Prog : Marc-Olivier Méhu
Technical & hardware support : Manuel Goepfert

Contact : metmap@orbifly.com




SOURCES & CREDITS :

   NOAA